• Join FlightAware (Why Join?)
  • Login
  • US Flag 
Rudolph Flight #1: Arrived! 
04:06PM EST


 

Airport Tracker/Info


-or-


 

Live Flight TrackerFlight Track Log ✈ AAL297 ✈ 09-May-2013 ✈ KLAX - PHNL

Flight Track Log - Related Links

Times and Time Zones

All times are in EDT time to prevent confusion due to time zone crossing. See the AAL297 flight status page for this flight to view local times or setup timezone preferences in your user account.

Time Position Orientation Groundspeed Altitude Reporting Facility
EDT Latitude Longitude Course Direction KTS MPH feet Rate Location/Type
07:32PM 33.9333 -118.4333 180° South 165 190 1,500  Level Southern California TRACON
07:34PM 33.8917 -118.5125 238° Southwest 238 274 3,600 1,920 Climbing Los Angeles Center
07:35PM 33.7720 -118.6469 187° South  Level FlightAware Approximate
07:35PM 33.8406 -118.5772 226° Southwest 265 305 6,000  Level Los Angeles Center
07:36PM 33.6617 -118.6694 186° South  Level FlightAware Approximate
07:36PM 33.7822 -118.6275 216° Southwest 275 316 8,000  Level Los Angeles Center
07:37PM 33.5468 -118.6833 180° South  Level FlightAware Approximate
07:37PM 33.6903 -118.6550 194° South 289 333 10,300  Level Los Angeles Center
07:38PM 33.4323 -118.7000 180° South  Level FlightAware Approximate
07:38PM 33.6003 -118.6733 190° South 331 381 11,100  Level Los Angeles Center
07:39PM 33.4967 -118.6936 189° South 368 423 12,200 1,380 Climbing Los Angeles Center
07:40PM 33.3972 -118.7431 203° Southwest 396 456 14,000 1,980 Climbing Los Angeles Center
07:41PM 33.3172 -118.8339 224° Southwest 396 456 16,300 2,460 Climbing Los Angeles Center
07:42PM 33.2178 -118.9406 222° Southwest 400 460 19,200 1,980 Climbing Los Angeles Center
07:43PM 33.1464 -119.0467 231° Southwest 414 476 20,400 1,260 Climbing Los Angeles Center
07:44PM 33.0647 -119.1525 227° Southwest 433 498 21,900 1,500 Climbing Los Angeles Center
07:45PM 32.9756 -119.2592 225° Southwest 450 518 23,600 1,860 Climbing Los Angeles Center
07:46PM 32.8881 -119.3636 225° Southwest 449 517 25,800 1,740 Climbing Los Angeles Center
07:47PM 32.8003 -119.4692 225° Southwest 449 517 27,200 1,200 Climbing Los Angeles Center
07:48PM 32.6911 -119.6000 225° Southwest 464 534 28,400 1,440 Climbing Los Angeles Center
07:49PM 32.5981 -119.7111 225° Southwest 474 545 30,300 1,500 Climbing Los Angeles Center
07:50PM 32.5108 -119.8211 227° Southwest 461 531 31,600 1,380 Climbing Los Angeles Center
07:51PM 32.4358 -119.9442 234° Southwest 462 532 33,200 1,440 Climbing Los Angeles Center
07:52PM 32.3644 -120.0644 235° Southwest 447 514 34,600 960 Climbing Los Angeles Center
07:53PM 32.2942 -120.1819 235° Southwest 441 507 35,200 600 Climbing Los Angeles Center
07:54PM 32.2219 -120.3039 235° Southwest 450 518 35,900 360 Climbing Los Angeles Center
07:55PM 32.1339 -120.4503 235° Southwest 455 524 36,000  Climbing Los Angeles Center
07:56PM 32.0597 -120.5706 234° Southwest 454 522 36,000  Level Los Angeles Center
07:57PM 31.9875 -120.6886 234° Southwest 447 514 36,000  Level Los Angeles Center
07:59PM 31.9303 -120.7839 235° Southwest 447 514 36,000  Level Los Angeles Center
08:00PM 31.8436 -120.9244 234° Southwest 442 509 36,000  Level Los Angeles Center
08:01PM 31.7589 -121.0653 235° Southwest 440 506 36,000  Level Los Angeles Center
08:02PM 31.6869 -121.1772 233° Southwest 432 497 36,000  Level Los Angeles Center
08:04PM 31.5555 -121.3751 232° Southwest  Level FlightAware Approximate
08:11PM 31.3728 -122.2891 257° West  Level FlightAware Approximate
08:12PM 31.3467 -122.4197 257° West  Level FlightAware Approximate
08:13PM 31.3204 -122.5502 257° West  Level FlightAware Approximate
08:14PM 31.2941 -122.6806 257° West  Level FlightAware Approximate
08:15PM 31.2677 -122.8110 257° West  Level FlightAware Approximate
08:16PM 31.2413 -122.9413 257° West  Level FlightAware Approximate
08:17PM 31.2147 -123.0715 257° West  Level FlightAware Approximate
08:18PM 31.1881 -123.2017 257° West  Level FlightAware Approximate
08:19PM 31.1613 -123.3318 256° West  Level FlightAware Approximate
08:20PM 31.1343 -123.4619 256° West  Level FlightAware Approximate
08:21PM 31.1042 -123.5909 256° West  Level FlightAware Approximate
08:22PM 31.0761 -123.7205 256° West  Level FlightAware Approximate
08:22PM 31.1333 -123.5500 256° West 418 481 36,000  Level Oakland Oceanic (ODAPS)
08:23PM 31.0479 -123.8500 256° West  Level FlightAware Approximate
08:24PM 31.0195 -123.9795 256° West  Level FlightAware Approximate
08:25PM 30.9910 -124.1089 256° West  Level FlightAware Approximate
08:26PM 30.9624 -124.2382 256° West  Level FlightAware Approximate
08:27PM 30.9342 -124.3685 256° West  Level FlightAware Approximate
08:28PM 30.9014 -124.5965 255° West 418 481 36,000  Level FlightAware Transoceanic
08:29PM 30.8718 -124.7270 255° West 418 481 36,000  Level FlightAware Transoceanic
08:30PM 30.8421 -124.8573 255° West 418 481 36,000  Level FlightAware Transoceanic
08:31PM 30.8122 -124.9876 255° West 418 481 36,000  Level FlightAware Transoceanic
08:32PM 30.7822 -125.1178 255° West 418 481 36,000  Level FlightAware Transoceanic
08:33PM 30.7521 -125.2479 255° West 418 481 36,000  Level FlightAware Transoceanic
08:34PM 30.7219 -125.3780 255° West 418 481 36,000  Level FlightAware Transoceanic
08:35PM 30.6915 -125.5080 255° West 418 481 36,000  Level FlightAware Transoceanic
08:36PM 30.6611 -125.6378 255° West 418 481 36,000  Level FlightAware Transoceanic
08:37PM 30.6304 -125.7676 255° West 418 481 36,000  Level FlightAware Transoceanic
08:38PM 30.5997 -125.8974 255° West 418 481 36,000  Level FlightAware Transoceanic
08:39PM 30.5688 -126.0270 254° West 418 481 36,000  Level FlightAware Transoceanic
08:40PM 30.5378 -126.1565 254° West 418 481 36,000  Level FlightAware Transoceanic
08:41PM 30.5066 -126.2860 254° West 418 481 36,000  Level FlightAware Transoceanic
08:42PM 30.4754 -126.4154 254° West 418 481 36,000  Level FlightAware Transoceanic
08:43PM 30.4440 -126.5447 254° West 418 481 36,000  Level FlightAware Transoceanic
08:44PM 30.4125 -126.6739 254° West 418 481 36,000  Level FlightAware Transoceanic
08:45PM 30.3808 -126.8031 254° West 418 481 36,000  Level FlightAware Transoceanic
08:46PM 30.3490 -126.9321 254° West 418 481 36,000  Level FlightAware Transoceanic
08:47PM 30.3171 -127.0611 254° West 418 481 36,000  Level FlightAware Transoceanic
08:48PM 30.2851 -127.1900 254° West 418 481 36,000  Level FlightAware Transoceanic
08:49PM 30.2529 -127.3188 254° West 418 481 36,000  Level FlightAware Transoceanic
08:50PM 30.2207 -127.4475 254° West 418 481 36,000  Level FlightAware Transoceanic
08:51PM 30.1882 -127.5761 254° West 418 481 36,000  Level FlightAware Transoceanic
08:52PM 30.1557 -127.7047 254° West 418 481 36,000  Level FlightAware Transoceanic
08:53PM 30.1231 -127.8331 254° West 418 481 36,000  Level FlightAware Transoceanic
08:54PM 30.0903 -127.9615 254° West 418 481 36,000  Level FlightAware Transoceanic
08:55PM 30.0574 -128.0898 253° West 418 481 36,000  Level FlightAware Transoceanic
08:56PM 30.0243 -128.2180 253° West 418 481 36,000  Level FlightAware Transoceanic
08:57PM 29.9912 -128.3461 253° West 418 481 36,000  Level FlightAware Transoceanic
08:58PM 29.9579 -128.4742 253° West 418 481 36,000  Level FlightAware Transoceanic
08:59PM 29.9245 -128.6021 253° West 418 481 36,000  Level FlightAware Transoceanic
09:00PM 29.8910 -128.7300 253° West 418 481 36,000  Level FlightAware Transoceanic
09:01PM 29.8573 -128.8578 253° West 418 481 36,000  Level FlightAware Transoceanic
09:02PM 29.8235 -128.9854 253° West 418 481 36,000  Level FlightAware Transoceanic
09:03PM 29.7897 -129.1131 253° West 418 481 36,000  Level FlightAware Transoceanic
09:04PM 29.7556 -129.2406 253° West 418 481 36,000  Level FlightAware Transoceanic
09:05PM 29.7215 -129.3680 253° West 418 481 36,000  Level FlightAware Transoceanic
09:06PM 29.6872 -129.4953 253° West 418 481 36,000  Level FlightAware Transoceanic
09:07PM 29.6528 -129.6226 253° West 418 481 36,000  Level FlightAware Transoceanic
09:08PM 29.6183 -129.7498 253° West 418 481 36,000  Level FlightAware Transoceanic
09:09PM 29.5837 -129.8769 253° West 418 481 36,000  Level FlightAware Transoceanic
09:10PM 29.5490 -130.0039 253° West 418 481 36,000  Level FlightAware Transoceanic
09:11PM 29.5141 -130.1308 252° West 418 481 36,000  Level FlightAware Transoceanic
09:12PM 29.4791 -130.2576 252° West 418 481 36,000  Level FlightAware Transoceanic
09:13PM 29.4440 -130.3843 252° West 418 481 36,000  Level FlightAware Transoceanic
09:14PM 29.4088 -130.5110 252° West 418 481 36,000  Level FlightAware Transoceanic
09:15PM 29.3734 -130.6375 252° West 418 481 36,000  Level FlightAware Transoceanic
09:16PM 29.3380 -130.7640 252° West 418 481 36,000  Level FlightAware Transoceanic
09:17PM 29.3024 -130.8904 252° West 418 481 36,000  Level FlightAware Transoceanic
09:18PM 29.2667 -131.0167 252° West 418 481 36,000  Level FlightAware Transoceanic
09:19PM 29.2302 -131.1453 252° West 418 481 36,000  Level FlightAware Transoceanic
09:20PM 29.1936 -131.2738 252° West 418 481 36,000  Level FlightAware Transoceanic
09:21PM 29.1569 -131.4023 252° West 418 481 36,000  Level FlightAware Transoceanic
09:21PM 29.2667 -131.0167 252° West 425 489 36,000  Level Oakland Oceanic (ODAPS)
09:22PM 29.1201 -131.5306 252° West 418 481 36,000  Level FlightAware Transoceanic
09:23PM 29.0831 -131.6589 252° West 418 481 36,000  Level FlightAware Transoceanic
09:24PM 29.0460 -131.7871 252° West 418 481 36,000  Level FlightAware Transoceanic
09:25PM 29.0088 -131.9151 252° West 418 481 36,000  Level FlightAware Transoceanic
09:26PM 28.9715 -132.0431 252° West 418 481 36,000  Level FlightAware Transoceanic
09:27PM 28.9341 -132.1710 251° West 418 481 36,000  Level FlightAware Transoceanic
09:28PM 28.8965 -132.2988 251° West 425 489 36,000  Level FlightAware Transoceanic
09:29PM 28.8588 -132.4265 251° West 425 489 36,000  Level FlightAware Transoceanic
09:30PM 28.8210 -132.5542 251° West 425 489 36,000  Level FlightAware Transoceanic
09:31PM 28.7831 -132.6817 251° West 425 489 36,000  Level FlightAware Transoceanic
09:32PM 28.7451 -132.8091 251° West 425 489 36,000  Level FlightAware Transoceanic
09:33PM 28.7069 -132.9364 251° West 425 489 36,000  Level FlightAware Transoceanic
09:34PM 28.6686 -133.0637 251° West 425 489 36,000  Level FlightAware Transoceanic
09:35PM 28.6302 -133.1908 251° West 425 489 36,000  Level FlightAware Transoceanic
09:36PM 28.5917 -133.3179 251° West 425 489 36,000  Level FlightAware Transoceanic
09:37PM 28.5531 -133.4449 251° West 425 489 36,000  Level FlightAware Transoceanic
09:38PM 28.5143 -133.5717 251° West 425 489 36,000  Level FlightAware Transoceanic
09:39PM 28.4755 -133.6985 251° West 425 489 36,000  Level FlightAware Transoceanic
09:40PM 28.4365 -133.8252 251° West 425 489 36,000  Level FlightAware Transoceanic
09:41PM 28.3974 -133.9518 251° West 425 489 36,000  Level FlightAware Transoceanic
09:42PM 28.3581 -134.0783 251° West 425 489 36,000  Level FlightAware Transoceanic
09:43PM 28.3188 -134.2047 250° West 425 489 36,000  Level FlightAware Transoceanic
09:44PM 28.2793 -134.3310 250° West 425 489 36,000  Level FlightAware Transoceanic
09:45PM 28.2398 -134.4572 250° West 425 489 36,000  Level FlightAware Transoceanic
09:46PM 28.2001 -134.5833 250° West 425 489 36,000  Level FlightAware Transoceanic
09:47PM 28.1603 -134.7094 250° West 425 489 36,000  Level FlightAware Transoceanic
09:48PM 28.1204 -134.8353 250° West 425 489 36,000  Level FlightAware Transoceanic
09:49PM 28.0803 -134.9612 250° West 425 489 36,000  Level FlightAware Transoceanic
09:50PM 28.0402 -135.0869 250° West 425 489 36,000  Level FlightAware Transoceanic
09:51PM 27.9999 -135.2126 250° West 425 489 36,000  Level FlightAware Transoceanic
09:52PM 27.9595 -135.3381 250° West 425 489 36,000  Level FlightAware Transoceanic
09:53PM 27.9191 -135.4636 250° West 425 489 36,000  Level FlightAware Transoceanic
09:54PM 27.8784 -135.5890 250° West 425 489 36,000  Level FlightAware Transoceanic
09:55PM 27.8377 -135.7142 250° West 425 489 36,000  Level FlightAware Transoceanic
09:56PM 27.7969 -135.8394 250° West 425 489 36,000  Level FlightAware Transoceanic
09:57PM 27.7560 -135.9645 250° West 425 489 36,000  Level FlightAware Transoceanic
09:58PM 27.7149 -136.0895 250° West 425 489 36,000  Level FlightAware Transoceanic
09:59PM 27.6737 -136.2144 250° West 425 489 36,000  Level FlightAware Transoceanic
10:00PM 27.6324 -136.3392 249° West 425 489 36,000  Level FlightAware Transoceanic
10:01PM 27.5910 -136.4639 249° West 425 489 36,000  Level FlightAware Transoceanic
10:02PM 27.5495 -136.5885 249° West 425 489 36,000  Level FlightAware Transoceanic
10:03PM 27.5079 -136.7131 249° West 425 489 36,000  Level FlightAware Transoceanic
10:04PM 27.4662 -136.8375 249° West 425 489 36,000  Level FlightAware Transoceanic
10:05PM 27.4244 -136.9618 249° West 425 489 36,000  Level FlightAware Transoceanic
10:06PM 27.3824 -137.0861 249° West 425 489 36,000  Level FlightAware Transoceanic
10:07PM 27.3404 -137.2102 249° West 425 489 36,000  Level FlightAware Transoceanic
10:08PM 27.2982 -137.3343 249° West 425 489 36,000  Level FlightAware Transoceanic
10:09PM 27.2559 -137.4582 249° West 425 489 36,000  Level FlightAware Transoceanic
10:10PM 27.2136 -137.5821 249° West 425 489 36,000  Level FlightAware Transoceanic
10:11PM 27.1710 -137.7059 249° West 425 489 36,000  Level FlightAware Transoceanic
10:12PM 27.1285 -137.8295 249° West 425 489 36,000  Level FlightAware Transoceanic
10:13PM 27.0857 -137.9531 249° West 425 489 36,000  Level FlightAware Transoceanic
10:14PM 27.0429 -138.0766 249° West 425 489 36,000  Level FlightAware Transoceanic
10:15PM 27.0000 -138.2000 249° West 425 489 36,000  Level FlightAware Transoceanic
10:16PM 26.9567 -138.3237 249° West 425 489 36,000  Level FlightAware Transoceanic
10:17PM 26.9133 -138.4474 248° West 425 489 36,000  Level FlightAware Transoceanic
10:17PM 27.0000 -138.2000 249° West 426 490 36,000  Level Oakland Oceanic (ODAPS)
10:18PM 26.8698 -138.5709 248° West 425 489 36,000  Level FlightAware Transoceanic
10:19PM 26.8261 -138.6944 248° West 425 489 36,000  Level FlightAware Transoceanic
10:20PM 26.7824 -138.8177 248° West 425 489 36,000  Level FlightAware Transoceanic
10:21PM 26.7386 -138.9409 248° West 425 489 36,000  Level FlightAware Transoceanic
10:22PM 26.6946 -139.0641 248° West 425 489 36,000  Level FlightAware Transoceanic
10:23PM 26.6506 -139.1872 248° West 426 490 36,000  Level FlightAware Transoceanic
10:24PM 26.6064 -139.3101 248° West 426 490 36,000  Level FlightAware Transoceanic
10:25PM 26.5621 -139.4330 248° West 426 490 36,000  Level FlightAware Transoceanic
10:26PM 26.5178 -139.5558 248° West 426 490 36,000  Level FlightAware Transoceanic
10:27PM 26.4733 -139.6785 248° West 426 490 36,000  Level FlightAware Transoceanic
10:28PM 26.4287 -139.8011 248° West 426 490 36,000  Level FlightAware Transoceanic
10:29PM 26.3840 -139.9236 248° West 426 490 36,000  Level FlightAware Transoceanic
10:30PM 26.3392 -140.0460 248° West 426 490 36,000  Level FlightAware Transoceanic
10:31PM 26.2943 -140.1683 248° West 426 490 36,000  Level FlightAware Transoceanic
10:32PM 26.2493 -140.2905 248° West 426 490 36,000  Level FlightAware Transoceanic
10:33PM 26.2042 -140.4126 248° West 426 490 36,000  Level FlightAware Transoceanic
10:34PM 26.1590 -140.5346 248° West 426 490 36,000  Level FlightAware Transoceanic
10:35PM 26.1137 -140.6565 247° West 426 490 36,000  Level FlightAware Transoceanic
10:36PM 26.0683 -140.7784 247° West 426 490 36,000  Level FlightAware Transoceanic
10:37PM 26.0228 -140.9001 247° West 426 490 36,000  Level FlightAware Transoceanic
10:38PM 25.9772 -141.0217 247° West 426 490 36,000  Level FlightAware Transoceanic
10:39PM 25.9315 -141.1433 247° West 426 490 36,000  Level FlightAware Transoceanic
10:40PM 25.8857 -141.2647 247° West 426 490 36,000  Level FlightAware Transoceanic
10:41PM 25.8397 -141.3861 247° West 426 490 36,000  Level FlightAware Transoceanic
10:42PM 25.7937 -141.5074 247° West 426 490 36,000  Level FlightAware Transoceanic
10:43PM 25.7476 -141.6285 247° West 426 490 36,000  Level FlightAware Transoceanic
10:44PM 25.7014 -141.7496 247° West 426 490 36,000  Level FlightAware Transoceanic
10:45PM 25.6551 -141.8706 247° West 426 490 36,000  Level FlightAware Transoceanic
10:46PM 25.6087 -141.9915 247° West 426 490 36,000  Level FlightAware Transoceanic
10:47PM 25.5621 -142.1123 247° West 426 490 36,000  Level FlightAware Transoceanic
10:48PM 25.5155 -142.2330 247° West 426 490 36,000  Level FlightAware Transoceanic
10:49PM 25.4688 -142.3536 247° West 426 490 36,000  Level FlightAware Transoceanic
10:50PM 25.4220 -142.4741 247° West 426 490 36,000  Level FlightAware Transoceanic
10:51PM 25.3751 -142.5945 247° West 426 490 36,000  Level FlightAware Transoceanic
10:52PM 25.3281 -142.7148 247° West 426 490 36,000  Level FlightAware Transoceanic
10:53PM 25.2810 -142.8351 247° West 426 490 36,000  Level FlightAware Transoceanic
10:54PM 25.2338 -142.9552 246° West 426 490 36,000  Level FlightAware Transoceanic
10:55PM 25.1865 -143.0752 246° West 426 490 36,000  Level FlightAware Transoceanic
10:56PM 25.1391 -143.1952 246° West 426 490 36,000  Level FlightAware Transoceanic
10:57PM 25.0916 -143.3150 246° West 426 490 36,000  Level FlightAware Transoceanic
10:58PM 25.0440 -143.4348 246° West 426 490 36,000  Level FlightAware Transoceanic
10:59PM 24.9963 -143.5545 246° West 426 490 36,000  Level FlightAware Transoceanic
11:00PM 24.9485 -143.6741 246° West 426 490 36,000  Level FlightAware Transoceanic
11:01PM 24.9006 -143.7936 246° West 426 490 36,000  Level FlightAware Transoceanic
11:02PM 24.8527 -143.9129 246° West 426 490 36,000  Level FlightAware Transoceanic
11:03PM 24.8046 -144.0323 246° West 426 490 36,000  Level FlightAware Transoceanic
11:04PM 24.7564 -144.1515 246° West 426 490 36,000  Level FlightAware Transoceanic
11:05PM 24.7082 -144.2706 246° West 426 490 36,000  Level FlightAware Transoceanic
11:06PM 24.6598 -144.3896 246° West 426 490 36,000  Level FlightAware Transoceanic
11:07PM 24.6114 -144.5085 246° West 426 490 36,000  Level FlightAware Transoceanic
11:08PM 24.5628 -144.6274 246° West 426 490 36,000  Level FlightAware Transoceanic
11:09PM 24.5142 -144.7461 246° West 426 490 36,000  Level FlightAware Transoceanic
11:10PM 24.4655 -144.8648 246° West 426 490 36,000  Level FlightAware Transoceanic
11:11PM 24.4167 -144.9833 246° West 426 490 36,000  Level FlightAware Transoceanic
11:12PM 24.3679 -145.1016 246° West 426 490 36,000  Level FlightAware Transoceanic
11:13PM 24.3190 -145.2197 246° West 426 490 36,000  Level FlightAware Transoceanic
11:13PM 24.4167 -144.9833 246° West 433 498 36,000  Level Oakland Oceanic (ODAPS)
11:14PM 24.2700 -145.3377 245° Southwest 426 490 36,000  Level FlightAware Transoceanic
11:15PM 24.2209 -145.4557 245° Southwest 426 490 36,000  Level FlightAware Transoceanic
11:16PM 24.1717 -145.5735 245° Southwest 426 490 36,000  Level FlightAware Transoceanic
11:17PM 24.1224 -145.6913 245° Southwest 426 490 36,000  Level FlightAware Transoceanic
11:18PM 24.0731 -145.8090 245° Southwest 426 490 36,000  Level FlightAware Transoceanic
11:19PM 24.0237 -145.9266 245° Southwest 426 490 36,000  Level FlightAware Transoceanic
11:20PM 24.0165 -145.9437 245° Southwest 433 498 36,000  Level FlightAware Transoceanic
11:21PM 23.9660 -146.0633 245° Southwest 433 498 36,000  Level FlightAware Transoceanic
11:22PM 23.9155 -146.1828 245° Southwest 433 498 36,000  Level FlightAware Transoceanic
11:23PM 23.8648 -146.3022 245° Southwest 433 498 36,000  Level FlightAware Transoceanic
11:24PM 23.8141 -146.4216 245° Southwest 433 498 36,000  Level FlightAware Transoceanic
11:25PM 23.7633 -146.5408 245° Southwest 433 498 36,000  Level FlightAware Transoceanic
11:26PM 23.7124 -146.6600 245° Southwest 433 498 36,000  Level FlightAware Transoceanic
11:27PM 23.6614 -146.7790 245° Southwest 433 498 36,000  Level FlightAware Transoceanic
11:28PM 23.6103 -146.8980 245° Southwest 433 498 36,000  Level FlightAware Transoceanic
11:29PM 23.5591 -147.0168 245° Southwest 433 498 36,000  Level FlightAware Transoceanic
11:30PM 23.5079 -147.1356 245° Southwest 433 498 36,000  Level FlightAware Transoceanic
11:31PM 23.4565 -147.2543 245° Southwest 433 498 36,000  Level FlightAware Transoceanic
11:32PM 23.4050 -147.3729 245° Southwest 433 498 36,000  Level FlightAware Transoceanic
11:33PM 23.3535 -147.4914 245° Southwest 433 498 36,000  Level FlightAware Transoceanic
11:34PM 23.3019 -147.6098 245° Southwest 433 498 36,000  Level FlightAware Transoceanic
11:35PM 23.2502 -147.7281 245° Southwest 433 498 36,000  Level FlightAware Transoceanic
11:36PM 23.1983 -147.8464 244° Southwest 433 498 36,000  Level FlightAware Transoceanic
11:37PM 23.1465 -147.9645 244° Southwest 433 498 36,000  Level FlightAware Transoceanic
11:38PM 23.0945 -148.0826 244° Southwest 433 498 36,000  Level FlightAware Transoceanic
11:39PM 23.0424 -148.2005 244° Southwest 433 498 36,000  Level FlightAware Transoceanic
11:40PM 22.9902 -148.3184 244° Southwest 433 498 36,000  Level FlightAware Transoceanic
11:41PM 22.9380 -148.4361 244° Southwest 433 498 36,000  Level FlightAware Transoceanic
11:42PM 22.8857 -148.5538 244° Southwest 433 498 36,000  Level FlightAware Transoceanic
11:43PM 22.8333 -148.6714 244° Southwest 433 498 36,000  Level FlightAware Transoceanic
11:44PM 22.7807 -148.7889 244° Southwest 433 498 36,000  Level FlightAware Transoceanic
11:45PM 22.7281 -148.9063 244° Southwest 433 498 36,000  Level FlightAware Transoceanic
11:46PM 22.6755 -149.0236 244° Southwest 433 498 36,000  Level FlightAware Transoceanic
11:47PM 22.6227 -149.1408 244° Southwest 433 498 36,000  Level FlightAware Transoceanic
11:48PM 22.5699 -149.2580 244° Southwest 433 498 36,000  Level FlightAware Transoceanic
11:49PM 22.5169 -149.3750 244° Southwest 433 498 36,000  Level FlightAware Transoceanic
11:50PM 22.4639 -149.4920 244° Southwest 433 498 36,000  Level FlightAware Transoceanic
11:51PM 22.4108 -149.6088 244° Southwest 433 498 36,000  Level FlightAware Transoceanic
11:52PM 22.3576 -149.7256 244° Southwest 433 498 36,000  Level FlightAware Transoceanic
11:53PM 22.3044 -149.8423 244° Southwest 433 498 36,000  Level FlightAware Transoceanic
11:54PM 22.2510 -149.9589 244° Southwest 433 498 36,000  Level FlightAware Transoceanic
11:55PM 22.1976 -150.0754 244° Southwest 433 498 36,000  Level FlightAware Transoceanic
11:56PM 22.1441 -150.1918 244° Southwest 433 498 36,000  Level FlightAware Transoceanic
11:57PM 22.0905 -150.3082 244° Southwest 433 498 36,000  Level FlightAware Transoceanic
11:58PM 22.0368 -150.4244 243° Southwest 433 498 36,000  Level FlightAware Transoceanic
11:59PM 21.9830 -150.5406 243° Southwest 433 498 36,000  Level FlightAware Transoceanic
12:00AM 21.9292 -150.6566 243° Southwest 433 498 36,000  Level FlightAware Transoceanic
12:01AM 21.8752 -150.7726 243° Southwest 433 498 36,000  Level FlightAware Transoceanic
12:02AM 21.8213 -150.8885 243° Southwest 433 498 36,000  Level FlightAware Transoceanic
12:03AM 21.7672 -151.0043 243° Southwest 433 498 36,000  Level FlightAware Transoceanic
12:04AM 21.7130 -151.1200 243° Southwest 433 498 36,000  Level FlightAware Transoceanic
12:05AM 21.6587 -151.2357 243° Southwest 433 498 36,000  Level FlightAware Transoceanic
12:06AM 21.6044 -151.3512 243° Southwest 433 498 36,000  Level FlightAware Transoceanic
12:07AM 21.5500 -151.4667 243° Southwest 433 498 36,000  Level FlightAware Transoceanic
12:07AM 21.5667 -151.4167 242° Southwest 420 483 36,000  Level Honolulu Center
12:08AM 21.4928 -151.5852 243° Southwest 433 498 36,000  Level FlightAware Transoceanic
12:08AM 21.5167 -151.5333 245° Southwest 430 495 36,000  Level Honolulu Center
12:09AM 21.4355 -151.7036 243° Southwest 433 498 36,000  Level FlightAware Transoceanic
12:09AM 21.4500 -151.6500 238° Southwest 430 495 36,000  Level Honolulu Center
12:10AM 21.3782 -151.8219 242° Southwest 433 498 36,000  Level FlightAware Transoceanic
12:10AM 21.4000 -151.7667 245° Southwest 430 495 36,000  Level Honolulu Center
12:11AM 21.3207 -151.9401 242° Southwest 433 498 36,000  Level FlightAware Transoceanic
12:11AM 21.3500 -151.8667 242° Southwest 430 495 36,000  Level Honolulu Center
12:12AM 21.2632 -152.0582 242° Southwest 433 498 36,000  Level FlightAware Transoceanic
12:12AM 21.3000 -151.9833 245° Southwest 430 495 36,000  Level Honolulu Center
12:13AM 21.2056 -152.1763 242° Southwest 433 498 36,000  Level FlightAware Transoceanic
12:13AM 21.2333 -152.1000 239° Southwest 430 495 36,000  Level Honolulu Center
12:14AM 21.2000 -152.2167 253° West 410 472 36,000  Level Honolulu Center
12:15AM 21.1833 -152.3500 262° West 420 483 36,000  Level Honolulu Center
12:16AM 21.1833 -152.4833 270° West 430 495 36,000  Level Honolulu Center
12:17AM 21.1667 -152.6000 261° West 430 495 36,000  Level Honolulu Center
12:18AM 21.1667 -152.7333 270° West 430 495 36,000  Level Honolulu Center
12:19AM 21.1500 -152.8500 261° West 430 495 36,000  Level Honolulu Center
12:20AM 21.1500 -152.9833 270° West 430 495 36,000  Level Honolulu Center
12:21AM 21.1333 -153.1167 262° West 430 495 36,000  Level Honolulu Center
12:22AM 21.1167 -153.2333 261° West 420 483 36,000  Level Honolulu Center
12:23AM 21.1167 -153.3667 270° West 430 495 36,000  Level Honolulu Center
12:24AM 21.1000 -153.4833 261° West 430 495 36,000  Level Honolulu Center
12:25AM 21.0833 -153.6167 262° West 420 483 36,000  Level Honolulu Center
12:26AM 21.0833 -153.7500 270° West 420 483 36,000  Level Honolulu Center
12:27AM 21.0667 -153.8667 261° West 420 483 36,000  Level Honolulu Center
12:28AM 21.0500 -154.0000 262° West 420 483 36,000  Level Honolulu Center
12:29AM 21.0333 -154.1167 261° West 420 483 36,000  Level Honolulu Center
12:30AM 21.0333 -154.2500 270° West 420 483 36,000  Level Honolulu Center
12:31AM 21.0167 -154.3667 261° West 430 495 36,000  Level Honolulu Center
12:32AM 21.0000 -154.5000 262° West 430 495 36,000  Level Honolulu Center
12:33AM 21.0000 -154.6167 270° West 420 483 36,000  Level Honolulu Center
12:34AM 20.9833 -154.7500 262° West 420 483 36,000  Level Honolulu Center
12:35AM 20.9667 -154.8667 261° West 420 483 36,000  Level Honolulu Center
12:36AM 20.9500 -154.9833 261° West 430 495 36,000  Level Honolulu Center
12:37AM 20.9500 -155.1167 270° West 430 495 36,000  Level Honolulu Center
12:38AM 20.9333 -155.2333 261° West 430 495 36,000  Level Honolulu Center
12:39AM 20.9167 -155.3667 262° West 420 483 36,000  Level Honolulu Center
12:40AM 20.9000 -155.5000 262° West 430 495 36,000  Level Honolulu Center
12:41AM 20.9000 -155.6167 270° West 420 483 36,000  Level Honolulu Center
12:42AM 20.8833 -155.7500 262° West 420 483 36,000  Level Honolulu Center
12:43AM 20.8667 -155.8667 261° West 420 483 36,000  Level Honolulu Center
12:44AM 20.8500 -156.0167 263° West 430 495 36,000  Level Honolulu Center
12:45AM 20.8333 -156.1500 262° West 420 483 36,000  Level Honolulu Center
12:46AM 20.8333 -156.2667 270° West 420 483 36,000  Level Honolulu Center
12:47AM 20.8167 -156.3833 261° West 440 506 36,000 -480 Level Honolulu Center
12:48AM 20.8000 -156.5333 263° West 450 518 35,100 -1,200 Descending Honolulu Center
12:49AM 20.8167 -156.6500 279° West 440 506 33,600 -1,980 Descending Honolulu Center
12:51AM 20.8333 -156.7833 278° West 450 518 31,200 -2,580 Descending Honolulu Center
12:52AM 20.8667 -156.9167 285° West 460 529 28,500 -2,820 Descending Honolulu Center
12:53AM 20.8833 -157.0667 277° West 460 529 25,600 -3,000 Descending Honolulu Center
12:54AM 20.9000 -157.1833 279° West 450 518 22,600 -3,000 Descending Honolulu Center
12:55AM 20.9167 -157.3167 278° West 440 506 19,700 -3,600 Descending Honolulu Center
12:56AM 20.9333 -157.4500 278° West 420 483 15,500 -4,500 Descending Honolulu Center
12:57AM 20.9667 -157.5667 287° West 400 460 10,800 -3,540 Descending Honolulu Center
12:58AM 21.0000 -157.6667 290° West 340 391 8,400 -1,980 Descending Honolulu Center
12:59AM 21.0333 -157.7333 298° West 270 311 6,900 -1,680 Descending Honolulu Center
01:00AM 21.0500 -157.8000 285° West 250 288 5,100 -1,740 Descending Honolulu Center
01:01AM 21.0833 -157.8667 298° West 230 265 3,500 -1,260 Descending Honolulu Center
01:02AM 21.1167 -157.9167 306° West 210 242 2,600 -960 Descending Honolulu Center
01:03AM 21.1500 -157.9667 306° West 210 242 1,600 -1,020 Descending Honolulu Center